sensor_id;sensor_type;location;lat;lon;timestamp;temperature;humidity
44509;DHT22;30214;52.246;14.408;2022-11-15T00:00:42;3.50;99.90
44509;DHT22;30214;52.246;14.408;2022-11-15T00:03:28;3.50;99.90
44509;DHT22;30214;52.246;14.408;2022-11-15T00:06:13;3.50;99.90
44509;DHT22;30214;52.246;14.408;2022-11-15T00:08:59;3.50;99.90
44509;DHT22;30214;52.246;14.408;2022-11-15T00:11:46;3.50;99.90
44509;DHT22;30214;52.246;14.408;2022-11-15T00:14:32;3.50;99.90
44509;DHT22;30214;52.246;14.408;2022-11-15T00:17:19;3.50;99.90
44509;DHT22;30214;52.246;14.408;2022-11-15T00:20:06;3.50;99.90
44509;DHT22;30214;52.246;14.408;2022-11-15T00:22:52;3.40;99.90
44509;DHT22;30214;52.246;14.408;2022-11-15T00:25:38;3.40;99.90
44509;DHT22;30214;52.246;14.408;2022-11-15T00:28:26;3.40;99.90
44509;DHT22;30214;52.246;14.408;2022-11-15T00:31:13;3.40;99.90
44509;DHT22;30214;52.246;14.408;2022-11-15T00:34:00;3.40;99.90
44509;DHT22;30214;52.246;14.408;2022-11-15T00:36:45;3.40;99.90
44509;DHT22;30214;52.246;14.408;2022-11-15T00:39:31;3.40;99.90
44509;DHT22;30214;52.246;14.408;2022-11-15T00:42:17;3.40;99.90
44509;DHT22;30214;52.246;14.408;2022-11-15T00:45:04;3.40;99.90
44509;DHT22;30214;52.246;14.408;2022-11-15T00:47:51;3.40;99.90
44509;DHT22;30214;52.246;14.408;2022-11-15T00:50:37;3.40;99.90
44509;DHT22;30214;52.246;14.408;2022-11-15T00:53:22;3.50;99.90
44509;DHT22;30214;52.246;14.408;2022-11-15T00:56:07;3.50;99.90
44509;DHT22;30214;52.246;14.408;2022-11-15T00:58:53;3.40;99.90
44509;DHT22;30214;52.246;14.408;2022-11-15T01:01:40;3.40;99.90
44509;DHT22;30214;52.246;14.408;2022-11-15T01:04:25;3.40;99.90
44509;DHT22;30214;52.246;14.408;2022-11-15T01:07:11;3.40;99.90
44509;DHT22;30214;52.246;14.408;2022-11-15T01:09:57;3.40;99.90
44509;DHT22;30214;52.246;14.408;2022-11-15T01:12:43;3.30;99.90
44509;DHT22;30214;52.246;14.408;2022-11-15T01:15:28;3.30;99.90
44509;DHT22;30214;52.246;14.408;2022-11-15T01:18:15;3.30;99.90
44509;DHT22;30214;52.246;14.408;2022-11-15T01:21:05;3.30;99.90
44509;DHT22;30214;52.246;14.408;2022-11-15T01:23:53;3.30;99.90
44509;DHT22;30214;52.246;14.408;2022-11-15T01:26:39;3.30;99.90
44509;DHT22;30214;52.246;14.408;2022-11-15T01:29:25;3.20;99.90
44509;DHT22;30214;52.246;14.408;2022-11-15T01:32:10;3.20;99.90
44509;DHT22;30214;52.246;14.408;2022-11-15T01:34:57;3.20;99.90
44509;DHT22;30214;52.246;14.408;2022-11-15T01:37:46;3.20;99.90
44509;DHT22;30214;52.246;14.408;2022-11-15T01:40:32;3.20;99.90
44509;DHT22;30214;52.246;14.408;2022-11-15T01:43:19;3.10;99.90
44509;DHT22;30214;52.246;14.408;2022-11-15T01:46:17;3.20;99.90
44509;DHT22;30214;52.246;14.408;2022-11-15T01:49:12;3.20;99.90
44509;DHT22;30214;52.246;14.408;2022-11-15T01:52:03;3.20;99.90
44509;DHT22;30214;52.246;14.408;2022-11-15T01:54:54;3.10;99.90
44509;DHT22;30214;52.246;14.408;2022-11-15T01:57:43;3.00;99.90
44509;DHT22;30214;52.246;14.408;2022-11-15T02:00:31;3.10;99.90
44509;DHT22;30214;52.246;14.408;2022-11-15T02:03:17;3.00;99.90
44509;DHT22;30214;52.246;14.408;2022-11-15T02:06:04;3.10;99.90
44509;DHT22;30214;52.246;14.408;2022-11-15T02:08:52;3.00;99.90
44509;DHT22;30214;52.246;14.408;2022-11-15T02:11:37;3.00;99.90
44509;DHT22;30214;52.246;14.408;2022-11-15T02:14:25;3.00;99.90
44509;DHT22;30214;52.246;14.408;2022-11-15T02:17:25;3.00;99.90
44509;DHT22;30214;52.246;14.408;2022-11-15T02:20:43;3.00;99.90
44509;DHT22;30214;52.246;14.408;2022-11-15T02:27:36;3.00;99.90
44509;DHT22;30214;52.246;14.408;2022-11-15T02:30:36;2.90;99.90
44509;DHT22;30214;52.246;14.408;2022-11-15T02:33:30;2.90;99.90
44509;DHT22;30214;52.246;14.408;2022-11-15T02:36:29;2.90;99.90
44509;DHT22;30214;52.246;14.408;2022-11-15T02:39:27;2.80;99.90
44509;DHT22;30214;52.246;14.408;2022-11-15T02:42:17;2.80;99.90
44509;DHT22;30214;52.246;14.408;2022-11-15T02:45:28;2.80;99.90
44509;DHT22;30214;52.246;14.408;2022-11-15T02:48:19;2.80;99.90
44509;DHT22;30214;52.246;14.408;2022-11-15T02:51:07;2.70;99.90
44509;DHT22;30214;52.246;14.408;2022-11-15T02:53:53;2.70;99.90
44509;DHT22;30214;52.246;14.408;2022-11-15T02:56:39;2.70;99.90
44509;DHT22;30214;52.246;14.408;2022-11-15T03:03:13;2.70;99.90
44509;DHT22;30214;52.246;14.408;2022-11-15T03:06:19;2.60;99.90
44509;DHT22;30214;52.246;14.408;2022-11-15T03:09:10;2.60;99.90
44509;DHT22;30214;52.246;14.408;2022-11-15T03:12:05;2.60;99.90
44509;DHT22;30214;52.246;14.408;2022-11-15T03:14:59;2.60;99.90
44509;DHT22;30214;52.246;14.408;2022-11-15T03:17:50;2.50;99.90
44509;DHT22;30214;52.246;14.408;2022-11-15T03:20:42;2.50;99.90
44509;DHT22;30214;52.246;14.408;2022-11-15T03:23:30;2.50;99.90
44509;DHT22;30214;52.246;14.408;2022-11-15T03:26:18;2.50;99.90
44509;DHT22;30214;52.246;14.408;2022-11-15T03:29:11;2.40;99.90
44509;DHT22;30214;52.246;14.408;2022-11-15T03:32:03;2.40;99.90
44509;DHT22;30214;52.246;14.408;2022-11-15T03:34:53;2.40;99.90
44509;DHT22;30214;52.246;14.408;2022-11-15T03:37:48;2.40;99.90
44509;DHT22;30214;52.246;14.408;2022-11-15T03:40:39;2.40;99.90
44509;DHT22;30214;52.246;14.408;2022-11-15T03:43:32;2.30;99.90
44509;DHT22;30214;52.246;14.408;2022-11-15T03:46:26;2.40;99.90
44509;DHT22;30214;52.246;14.408;2022-11-15T03:49:17;2.40;99.90
44509;DHT22;30214;52.246;14.408;2022-11-15T03:52:05;2.40;99.90
44509;DHT22;30214;52.246;14.408;2022-11-15T03:54:54;2.40;99.90
44509;DHT22;30214;52.246;14.408;2022-11-15T03:57:41;2.40;99.90
44509;DHT22;30214;52.246;14.408;2022-11-15T04:00:27;2.40;99.90
44509;DHT22;30214;52.246;14.408;2022-11-15T04:03:13;2.40;99.90
44509;DHT22;30214;52.246;14.408;2022-11-15T04:05:59;2.30;99.90
44509;DHT22;30214;52.246;14.408;2022-11-15T04:08:44;2.20;99.90
44509;DHT22;30214;52.246;14.408;2022-11-15T04:11:31;2.20;99.90
44509;DHT22;30214;52.246;14.408;2022-11-15T04:14:16;2.20;99.90
44509;DHT22;30214;52.246;14.408;2022-11-15T04:17:02;2.20;99.90
44509;DHT22;30214;52.246;14.408;2022-11-15T04:19:47;2.20;99.90
44509;DHT22;30214;52.246;14.408;2022-11-15T04:22:52;2.10;99.90
44509;DHT22;30214;52.246;14.408;2022-11-15T04:25:59;2.10;99.90
44509;DHT22;30214;52.246;14.408;2022-11-15T04:28:47;2.10;99.90
44509;DHT22;30214;52.246;14.408;2022-11-15T04:31:50;2.10;99.90
44509;DHT22;30214;52.246;14.408;2022-11-15T04:34:36;2.00;99.90
44509;DHT22;30214;52.246;14.408;2022-11-15T04:37:22;2.10;99.90
44509;DHT22;30214;52.246;14.408;2022-11-15T04:40:08;2.00;99.90
44509;DHT22;30214;52.246;14.408;2022-11-15T04:42:55;2.00;99.90
44509;DHT22;30214;52.246;14.408;2022-11-15T04:45:43;2.00;99.90
44509;DHT22;30214;52.246;14.408;2022-11-15T04:48:28;2.00;99.90
44509;DHT22;30214;52.246;14.408;2022-11-15T04:51:14;2.00;99.90
44509;DHT22;30214;52.246;14.408;2022-11-15T04:53:59;2.00;99.90
44509;DHT22;30214;52.246;14.408;2022-11-15T04:56:45;1.90;99.90
44509;DHT22;30214;52.246;14.408;2022-11-15T04:59:31;2.00;99.90
44509;DHT22;30214;52.246;14.408;2022-11-15T05:02:18;2.00;99.90
44509;DHT22;30214;52.246;14.408;2022-11-15T05:05:04;1.90;99.90
44509;DHT22;30214;52.246;14.408;2022-11-15T05:07:49;1.90;99.90
44509;DHT22;30214;52.246;14.408;2022-11-15T05:10:35;2.00;99.90
44509;DHT22;30214;52.246;14.408;2022-11-15T05:13:22;1.90;99.90
44509;DHT22;30214;52.246;14.408;2022-11-15T05:16:07;1.80;99.90
44509;DHT22;30214;52.246;14.408;2022-11-15T05:18:54;1.70;99.90
44509;DHT22;30214;52.246;14.408;2022-11-15T05:21:40;1.80;99.90
44509;DHT22;30214;52.246;14.408;2022-11-15T05:24:26;1.70;99.90
44509;DHT22;30214;52.246;14.408;2022-11-15T05:27:11;1.70;99.90
44509;DHT22;30214;52.246;14.408;2022-11-15T05:29:57;1.70;99.90
44509;DHT22;30214;52.246;14.408;2022-11-15T05:32:44;1.70;99.90
44509;DHT22;30214;52.246;14.408;2022-11-15T05:35:34;1.70;99.90
44509;DHT22;30214;52.246;14.408;2022-11-15T05:38:23;1.70;99.90
44509;DHT22;30214;52.246;14.408;2022-11-15T05:41:09;1.70;99.90
44509;DHT22;30214;52.246;14.408;2022-11-15T05:43:56;1.60;99.90
44509;DHT22;30214;52.246;14.408;2022-11-15T05:46:43;1.70;99.90
44509;DHT22;30214;52.246;14.408;2022-11-15T05:49:31;1.70;99.90
44509;DHT22;30214;52.246;14.408;2022-11-15T05:52:23;1.70;99.90
44509;DHT22;30214;52.246;14.408;2022-11-15T05:55:11;1.70;99.90
44509;DHT22;30214;52.246;14.408;2022-11-15T05:57:57;1.70;99.90
44509;DHT22;30214;52.246;14.408;2022-11-15T06:00:44;1.70;99.90
44509;DHT22;30214;52.246;14.408;2022-11-15T06:03:31;1.80;99.90
44509;DHT22;30214;52.246;14.408;2022-11-15T06:06:16;1.80;99.90
44509;DHT22;30214;52.246;14.408;2022-11-15T06:09:03;1.70;99.90
44509;DHT22;30214;52.246;14.408;2022-11-15T06:11:49;1.70;99.90
44509;DHT22;30214;52.246;14.408;2022-11-15T06:14:35;1.70;99.90
44509;DHT22;30214;52.246;14.408;2022-11-15T06:17:21;1.70;99.90
44509;DHT22;30214;52.246;14.408;2022-11-15T06:20:07;1.70;99.90
44509;DHT22;30214;52.246;14.408;2022-11-15T06:22:57;1.70;99.90
44509;DHT22;30214;52.246;14.408;2022-11-15T06:25:44;1.70;99.90
44509;DHT22;30214;52.246;14.408;2022-11-15T06:28:30;1.70;99.90
44509;DHT22;30214;52.246;14.408;2022-11-15T06:31:16;1.70;99.90
44509;DHT22;30214;52.246;14.408;2022-11-15T06:34:01;1.70;99.90
44509;DHT22;30214;52.246;14.408;2022-11-15T06:36:47;1.70;99.90
44509;DHT22;30214;52.246;14.408;2022-11-15T06:39:32;1.70;99.90
44509;DHT22;30214;52.246;14.408;2022-11-15T06:42:19;1.70;99.90
44509;DHT22;30214;52.246;14.408;2022-11-15T06:45:06;1.80;99.90
44509;DHT22;30214;52.246;14.408;2022-11-15T06:47:52;1.90;99.90
44509;DHT22;30214;52.246;14.408;2022-11-15T06:50:39;1.90;99.90
44509;DHT22;30214;52.246;14.408;2022-11-15T06:53:26;1.90;99.90
44509;DHT22;30214;52.246;14.408;2022-11-15T06:56:14;1.90;99.90
44509;DHT22;30214;52.246;14.408;2022-11-15T06:59:01;1.90;99.90
44509;DHT22;30214;52.246;14.408;2022-11-15T07:01:47;1.90;99.90
44509;DHT22;30214;52.246;14.408;2022-11-15T07:04:34;1.90;99.90
44509;DHT22;30214;52.246;14.408;2022-11-15T07:07:20;1.90;99.90
44509;DHT22;30214;52.246;14.408;2022-11-15T07:10:09;1.90;99.90
44509;DHT22;30214;52.246;14.408;2022-11-15T07:12:55;2.00;99.90
44509;DHT22;30214;52.246;14.408;2022-11-15T07:15:43;2.00;99.90
44509;DHT22;30214;52.246;14.408;2022-11-15T07:18:29;2.00;99.90
44509;DHT22;30214;52.246;14.408;2022-11-15T07:21:14;2.00;99.90
44509;DHT22;30214;52.246;14.408;2022-11-15T07:24:00;2.00;99.90
44509;DHT22;30214;52.246;14.408;2022-11-15T07:26:46;2.00;99.90
44509;DHT22;30214;52.246;14.408;2022-11-15T07:29:31;2.00;99.90
44509;DHT22;30214;52.246;14.408;2022-11-15T07:32:18;2.10;99.90
44509;DHT22;30214;52.246;14.408;2022-11-15T07:35:04;2.20;99.90
44509;DHT22;30214;52.246;14.408;2022-11-15T07:37:55;2.30;99.90
44509;DHT22;30214;52.246;14.408;2022-11-15T07:40:41;2.30;99.90
44509;DHT22;30214;52.246;14.408;2022-11-15T07:43:27;2.40;99.90
44509;DHT22;30214;52.246;14.408;2022-11-15T07:46:13;2.40;99.90
44509;DHT22;30214;52.246;14.408;2022-11-15T07:49:00;2.40;99.90
44509;DHT22;30214;52.246;14.408;2022-11-15T07:51:45;2.40;99.90
44509;DHT22;30214;52.246;14.408;2022-11-15T07:54:31;2.50;99.90
44509;DHT22;30214;52.246;14.408;2022-11-15T07:57:16;2.60;99.90
44509;DHT22;30214;52.246;14.408;2022-11-15T08:00:03;2.70;99.90
44509;DHT22;30214;52.246;14.408;2022-11-15T08:02:50;2.70;99.90
44509;DHT22;30214;52.246;14.408;2022-11-15T08:05:38;2.80;99.90
44509;DHT22;30214;52.246;14.408;2022-11-15T08:08:24;2.80;99.90
44509;DHT22;30214;52.246;14.408;2022-11-15T08:11:13;2.80;99.90
44509;DHT22;30214;52.246;14.408;2022-11-15T08:13:58;2.80;99.90
44509;DHT22;30214;52.246;14.408;2022-11-15T08:16:44;2.90;99.90
44509;DHT22;30214;52.246;14.408;2022-11-15T08:19:30;2.90;99.90
44509;DHT22;30214;52.246;14.408;2022-11-15T08:22:17;2.90;99.90
44509;DHT22;30214;52.246;14.408;2022-11-15T08:25:04;3.00;99.90
44509;DHT22;30214;52.246;14.408;2022-11-15T08:27:51;3.10;99.90
44509;DHT22;30214;52.246;14.408;2022-11-15T08:30:40;3.20;99.90
44509;DHT22;30214;52.246;14.408;2022-11-15T08:33:26;3.30;99.90
44509;DHT22;30214;52.246;14.408;2022-11-15T08:36:14;3.30;99.90
44509;DHT22;30214;52.246;14.408;2022-11-15T08:39:02;3.20;99.90
44509;DHT22;30214;52.246;14.408;2022-11-15T08:41:48;3.40;99.90
44509;DHT22;30214;52.246;14.408;2022-11-15T08:44:33;3.50;99.90
44509;DHT22;30214;52.246;14.408;2022-11-15T08:47:19;3.60;99.90
44509;DHT22;30214;52.246;14.408;2022-11-15T08:50:05;3.70;99.90
44509;DHT22;30214;52.246;14.408;2022-11-15T08:52:52;3.80;99.90
44509;DHT22;30214;52.246;14.408;2022-11-15T08:55:40;4.00;99.90
44509;DHT22;30214;52.246;14.408;2022-11-15T08:58:25;4.10;99.90
44509;DHT22;30214;52.246;14.408;2022-11-15T09:01:16;4.10;99.90
44509;DHT22;30214;52.246;14.408;2022-11-15T09:04:02;4.20;99.90
44509;DHT22;30214;52.246;14.408;2022-11-15T09:06:49;4.40;99.90
44509;DHT22;30214;52.246;14.408;2022-11-15T09:09:34;4.50;99.90
44509;DHT22;30214;52.246;14.408;2022-11-15T09:12:21;4.60;99.90
44509;DHT22;30214;52.246;14.408;2022-11-15T09:15:07;4.80;99.90
44509;DHT22;30214;52.246;14.408;2022-11-15T09:17:55;4.80;99.90
44509;DHT22;30214;52.246;14.408;2022-11-15T09:20:43;5.00;99.90
44509;DHT22;30214;52.246;14.408;2022-11-15T09:23:28;5.10;99.90
44509;DHT22;30214;52.246;14.408;2022-11-15T09:26:14;5.20;99.90
44509;DHT22;30214;52.246;14.408;2022-11-15T09:29:01;5.40;99.90
44509;DHT22;30214;52.246;14.408;2022-11-15T09:31:46;5.50;99.90
44509;DHT22;30214;52.246;14.408;2022-11-15T09:34:32;5.70;99.90
44509;DHT22;30214;52.246;14.408;2022-11-15T09:37:17;5.90;99.90
44509;DHT22;30214;52.246;14.408;2022-11-15T09:40:03;6.00;99.90
44509;DHT22;30214;52.246;14.408;2022-11-15T09:42:59;6.10;99.90
44509;DHT22;30214;52.246;14.408;2022-11-15T09:45:57;6.30;99.90
44509;DHT22;30214;52.246;14.408;2022-11-15T09:49:07;6.50;99.90
44509;DHT22;30214;52.246;14.408;2022-11-15T09:51:58;6.60;99.90
44509;DHT22;30214;52.246;14.408;2022-11-15T09:54:28;6.70;99.90
44509;DHT22;30214;52.246;14.408;2022-11-15T09:57:03;6.80;99.90
44509;DHT22;30214;52.246;14.408;2022-11-15T09:59:52;6.80;99.90
44509;DHT22;30214;52.246;14.408;2022-11-15T10:02:51;6.90;99.90
44509;DHT22;30214;52.246;14.408;2022-11-15T10:05:26;7.10;99.90
44509;DHT22;30214;52.246;14.408;2022-11-15T10:07:59;7.20;99.90
44509;DHT22;30214;52.246;14.408;2022-11-15T10:10:32;7.40;99.90
44509;DHT22;30214;52.246;14.408;2022-11-15T10:13:03;7.60;99.90
44509;DHT22;30214;52.246;14.408;2022-11-15T10:15:31;7.60;99.90
44509;DHT22;30214;52.246;14.408;2022-11-15T10:18:16;7.60;99.90
44509;DHT22;30214;52.246;14.408;2022-11-15T10:20:49;7.70;99.90
44509;DHT22;30214;52.246;14.408;2022-11-15T10:23:20;7.80;99.90
44509;DHT22;30214;52.246;14.408;2022-11-15T10:25:50;7.90;99.90
44509;DHT22;30214;52.246;14.408;2022-11-15T10:28:22;8.00;99.90
44509;DHT22;30214;52.246;14.408;2022-11-15T10:30:54;8.10;99.90
44509;DHT22;30214;52.246;14.408;2022-11-15T10:33:33;8.30;99.90
44509;DHT22;30214;52.246;14.408;2022-11-15T10:36:21;8.40;99.90
44509;DHT22;30214;52.246;14.408;2022-11-15T10:38:56;8.60;99.90
44509;DHT22;30214;52.246;14.408;2022-11-15T10:41:35;8.70;99.90
44509;DHT22;30214;52.246;14.408;2022-11-15T10:44:18;8.80;99.90
44509;DHT22;30214;52.246;14.408;2022-11-15T10:46:48;9.00;99.90
44509;DHT22;30214;52.246;14.408;2022-11-15T10:49:33;9.10;99.90
44509;DHT22;30214;52.246;14.408;2022-11-15T10:52:03;9.10;99.90
44509;DHT22;30214;52.246;14.408;2022-11-15T10:54:41;9.20;99.90
44509;DHT22;30214;52.246;14.408;2022-11-15T10:57:13;9.20;99.90
44509;DHT22;30214;52.246;14.408;2022-11-15T10:59:46;9.30;99.90
44509;DHT22;30214;52.246;14.408;2022-11-15T11:02:28;9.40;99.90
44509;DHT22;30214;52.246;14.408;2022-11-15T11:04:58;9.40;99.90
44509;DHT22;30214;52.246;14.408;2022-11-15T11:07:27;9.50;99.90
44509;DHT22;30214;52.246;14.408;2022-11-15T11:10:02;9.60;99.90
44509;DHT22;30214;52.246;14.408;2022-11-15T11:12:33;9.70;99.90
44509;DHT22;30214;52.246;14.408;2022-11-15T11:15:09;9.80;99.90
44509;DHT22;30214;52.246;14.408;2022-11-15T11:17:49;9.90;99.90
44509;DHT22;30214;52.246;14.408;2022-11-15T11:20:26;9.90;99.90
44509;DHT22;30214;52.246;14.408;2022-11-15T11:23:03;10.00;99.90
44509;DHT22;30214;52.246;14.408;2022-11-15T11:25:50;10.00;99.90
44509;DHT22;30214;52.246;14.408;2022-11-15T11:28:35;10.10;99.90
44509;DHT22;30214;52.246;14.408;2022-11-15T11:31:17;10.20;99.90
44509;DHT22;30214;52.246;14.408;2022-11-15T11:34:04;10.20;99.90
44509;DHT22;30214;52.246;14.408;2022-11-15T11:36:45;10.30;99.90
44509;DHT22;30214;52.246;14.408;2022-11-15T11:39:24;10.40;99.90
44509;DHT22;30214;52.246;14.408;2022-11-15T11:42:01;10.60;99.90
44509;DHT22;30214;52.246;14.408;2022-11-15T11:44:34;10.50;99.90
44509;DHT22;30214;52.246;14.408;2022-11-15T11:47:09;10.60;99.90
44509;DHT22;30214;52.246;14.408;2022-11-15T11:49:43;10.70;99.90
44509;DHT22;30214;52.246;14.408;2022-11-15T11:52:17;10.80;99.90
44509;DHT22;30214;52.246;14.408;2022-11-15T11:54:58;11.00;99.90
44509;DHT22;30214;52.246;14.408;2022-11-15T11:57:33;11.00;99.90
44509;DHT22;30214;52.246;14.408;2022-11-15T12:00:14;11.10;99.90
44509;DHT22;30214;52.246;14.408;2022-11-15T12:02:49;11.10;99.90
44509;DHT22;30214;52.246;14.408;2022-11-15T12:05:28;11.10;99.90
44509;DHT22;30214;52.246;14.408;2022-11-15T12:07:59;11.20;99.90
44509;DHT22;30214;52.246;14.408;2022-11-15T12:10:32;11.20;99.90
44509;DHT22;30214;52.246;14.408;2022-11-15T12:13:03;11.20;99.90
44509;DHT22;30214;52.246;14.408;2022-11-15T12:15:36;11.20;99.90
44509;DHT22;30214;52.246;14.408;2022-11-15T12:18:10;11.20;99.90
44509;DHT22;30214;52.246;14.408;2022-11-15T12:20:41;11.30;99.90
44509;DHT22;30214;52.246;14.408;2022-11-15T12:23:17;11.30;99.90
44509;DHT22;30214;52.246;14.408;2022-11-15T12:25:50;11.40;99.90
44509;DHT22;30214;52.246;14.408;2022-11-15T12:28:25;11.50;99.90
44509;DHT22;30214;52.246;14.408;2022-11-15T12:31:02;11.50;99.90
44509;DHT22;30214;52.246;14.408;2022-11-15T12:33:34;11.50;99.90
44509;DHT22;30214;52.246;14.408;2022-11-15T12:36:04;11.60;99.90
44509;DHT22;30214;52.246;14.408;2022-11-15T12:39:00;11.70;99.90
44509;DHT22;30214;52.246;14.408;2022-11-15T12:41:29;11.80;99.90
44509;DHT22;30214;52.246;14.408;2022-11-15T12:43:58;11.80;99.90
44509;DHT22;30214;52.246;14.408;2022-11-15T12:49:49;11.90;99.90
44509;DHT22;30214;52.246;14.408;2022-11-15T12:52:18;11.90;99.90
44509;DHT22;30214;52.246;14.408;2022-11-15T12:54:59;11.90;99.90
44509;DHT22;30214;52.246;14.408;2022-11-15T12:57:42;11.90;99.90
44509;DHT22;30214;52.246;14.408;2022-11-15T13:00:43;12.00;99.90
44509;DHT22;30214;52.246;14.408;2022-11-15T13:03:32;12.00;99.90
44509;DHT22;30214;52.246;14.408;2022-11-15T13:06:03;11.90;99.90
44509;DHT22;30214;52.246;14.408;2022-11-15T13:08:37;12.00;99.90
44509;DHT22;30214;52.246;14.408;2022-11-15T13:11:46;12.00;99.90
44509;DHT22;30214;52.246;14.408;2022-11-15T13:17:27;12.10;99.90
44509;DHT22;30214;52.246;14.408;2022-11-15T13:20:07;12.10;99.90
44509;DHT22;30214;52.246;14.408;2022-11-15T13:22:43;12.10;99.90
44509;DHT22;30214;52.246;14.408;2022-11-15T13:25:30;12.00;99.90
44509;DHT22;30214;52.246;14.408;2022-11-15T13:28:19;12.00;99.90
44509;DHT22;30214;52.246;14.408;2022-11-15T13:30:51;12.10;99.90
44509;DHT22;30214;52.246;14.408;2022-11-15T13:33:22;12.10;99.90
44509;DHT22;30214;52.246;14.408;2022-11-15T13:35:52;12.00;99.90
44509;DHT22;30214;52.246;14.408;2022-11-15T13:38:27;12.00;99.90
44509;DHT22;30214;52.246;14.408;2022-11-15T13:40:57;12.00;99.90
44509;DHT22;30214;52.246;14.408;2022-11-15T13:43:31;12.00;99.90
44509;DHT22;30214;52.246;14.408;2022-11-15T13:46:10;12.00;99.90
44509;DHT22;30214;52.246;14.408;2022-11-15T13:48:39;12.00;99.90
44509;DHT22;30214;52.246;14.408;2022-11-15T13:51:15;11.90;99.90
44509;DHT22;30214;52.246;14.408;2022-11-15T13:53:46;11.90;99.90
44509;DHT22;30214;52.246;14.408;2022-11-15T13:56:16;11.90;99.90
44509;DHT22;30214;52.246;14.408;2022-11-15T13:58:48;11.90;99.90
44509;DHT22;30214;52.246;14.408;2022-11-15T14:01:18;11.90;99.90
44509;DHT22;30214;52.246;14.408;2022-11-15T14:03:53;11.90;99.90
44509;DHT22;30214;52.246;14.408;2022-11-15T14:06:24;11.80;99.90
44509;DHT22;30214;52.246;14.408;2022-11-15T14:09:24;11.70;99.90
44509;DHT22;30214;52.246;14.408;2022-11-15T14:11:57;11.70;99.90
44509;DHT22;30214;52.246;14.408;2022-11-15T14:14:26;11.60;99.90
44509;DHT22;30214;52.246;14.408;2022-11-15T14:16:56;11.50;99.90
44509;DHT22;30214;52.246;14.408;2022-11-15T14:19:36;11.40;99.90
44509;DHT22;30214;52.246;14.408;2022-11-15T14:25:14;11.30;99.90
44509;DHT22;30214;52.246;14.408;2022-11-15T14:27:44;11.30;99.90
44509;DHT22;30214;52.246;14.408;2022-11-15T14:30:24;11.20;99.90
44509;DHT22;30214;52.246;14.408;2022-11-15T14:32:51;11.20;99.90
44509;DHT22;30214;52.246;14.408;2022-11-15T14:35:21;11.10;99.90
44509;DHT22;30214;52.246;14.408;2022-11-15T14:37:49;11.00;99.90
44509;DHT22;30214;52.246;14.408;2022-11-15T14:40:19;11.00;99.90
44509;DHT22;30214;52.246;14.408;2022-11-15T14:42:49;11.00;99.90
44509;DHT22;30214;52.246;14.408;2022-11-15T14:45:18;10.90;99.90
44509;DHT22;30214;52.246;14.408;2022-11-15T14:47:48;10.90;99.90
44509;DHT22;30214;52.246;14.408;2022-11-15T14:50:17;10.80;99.90
44509;DHT22;30214;52.246;14.408;2022-11-15T14:52:46;10.70;99.90
44509;DHT22;30214;52.246;14.408;2022-11-15T14:55:18;10.60;99.90
44509;DHT22;30214;52.246;14.408;2022-11-15T14:57:48;10.50;99.90
44509;DHT22;30214;52.246;14.408;2022-11-15T15:00:17;10.40;99.90
44509;DHT22;30214;52.246;14.408;2022-11-15T15:02:47;10.30;99.90
44509;DHT22;30214;52.246;14.408;2022-11-15T15:05:18;10.30;99.90
44509;DHT22;30214;52.246;14.408;2022-11-15T15:07:46;10.10;99.90
44509;DHT22;30214;52.246;14.408;2022-11-15T15:10:15;10.00;99.90
44509;DHT22;30214;52.246;14.408;2022-11-15T15:12:43;9.90;99.90
44509;DHT22;30214;52.246;14.408;2022-11-15T15:15:14;9.80;99.90
44509;DHT22;30214;52.246;14.408;2022-11-15T15:17:42;9.90;99.90
44509;DHT22;30214;52.246;14.408;2022-11-15T15:20:13;9.80;99.90
44509;DHT22;30214;52.246;14.408;2022-11-15T15:22:44;9.80;99.90
44509;DHT22;30214;52.246;14.408;2022-11-15T15:25:21;9.60;99.90
44509;DHT22;30214;52.246;14.408;2022-11-15T15:28:16;9.60;99.90
44509;DHT22;30214;52.246;14.408;2022-11-15T15:30:43;9.50;99.90
44509;DHT22;30214;52.246;14.408;2022-11-15T15:33:10;9.40;99.90
44509;DHT22;30214;52.246;14.408;2022-11-15T15:35:39;9.40;99.90
44509;DHT22;30214;52.246;14.408;2022-11-15T15:38:10;9.30;99.90
44509;DHT22;30214;52.246;14.408;2022-11-15T15:40:38;9.30;99.90
44509;DHT22;30214;52.246;14.408;2022-11-15T15:43:05;9.20;99.90
44509;DHT22;30214;52.246;14.408;2022-11-15T15:45:36;9.10;99.90
44509;DHT22;30214;52.246;14.408;2022-11-15T15:48:05;9.10;99.90
44509;DHT22;30214;52.246;14.408;2022-11-15T15:50:34;9.00;99.90
44509;DHT22;30214;52.246;14.408;2022-11-15T15:53:05;8.70;99.90
44509;DHT22;30214;52.246;14.408;2022-11-15T15:55:33;8.60;99.90
44509;DHT22;30214;52.246;14.408;2022-11-15T15:58:01;8.50;99.90
44509;DHT22;30214;52.246;14.408;2022-11-15T16:00:29;8.40;99.90
44509;DHT22;30214;52.246;14.408;2022-11-15T16:02:58;8.20;99.90
44509;DHT22;30214;52.246;14.408;2022-11-15T16:05:27;8.10;99.90
44509;DHT22;30214;52.246;14.408;2022-11-15T16:07:55;8.00;99.90
44509;DHT22;30214;52.246;14.408;2022-11-15T16:10:29;8.00;99.90
44509;DHT22;30214;52.246;14.408;2022-11-15T16:13:01;8.20;99.90
44509;DHT22;30214;52.246;14.408;2022-11-15T16:15:30;8.40;99.90
44509;DHT22;30214;52.246;14.408;2022-11-15T16:17:59;8.40;99.90
44509;DHT22;30214;52.246;14.408;2022-11-15T16:20:31;8.30;99.90
44509;DHT22;30214;52.246;14.408;2022-11-15T16:23:01;8.30;99.90
44509;DHT22;30214;52.246;14.408;2022-11-15T16:25:33;8.20;99.90
44509;DHT22;30214;52.246;14.408;2022-11-15T16:28:03;8.20;99.90
44509;DHT22;30214;52.246;14.408;2022-11-15T16:30:30;8.10;99.90
44509;DHT22;30214;52.246;14.408;2022-11-15T16:32:59;7.90;99.90
44509;DHT22;30214;52.246;14.408;2022-11-15T16:35:26;7.70;99.90
44509;DHT22;30214;52.246;14.408;2022-11-15T16:37:54;7.60;99.90
44509;DHT22;30214;52.246;14.408;2022-11-15T16:40:27;7.40;99.90
44509;DHT22;30214;52.246;14.408;2022-11-15T16:42:59;7.40;99.90
44509;DHT22;30214;52.246;14.408;2022-11-15T16:45:34;7.30;99.90
44509;DHT22;30214;52.246;14.408;2022-11-15T16:48:01;7.30;99.90
44509;DHT22;30214;52.246;14.408;2022-11-15T16:50:30;7.30;99.90
44509;DHT22;30214;52.246;14.408;2022-11-15T16:53:00;7.40;99.90
44509;DHT22;30214;52.246;14.408;2022-11-15T16:55:28;7.30;99.90
44509;DHT22;30214;52.246;14.408;2022-11-15T16:57:57;7.30;99.90
44509;DHT22;30214;52.246;14.408;2022-11-15T17:00:24;7.40;99.90
44509;DHT22;30214;52.246;14.408;2022-11-15T17:02:52;7.40;99.90
44509;DHT22;30214;52.246;14.408;2022-11-15T17:05:21;7.40;99.90
44509;DHT22;30214;52.246;14.408;2022-11-15T17:07:50;7.30;99.90
44509;DHT22;30214;52.246;14.408;2022-11-15T17:10:19;7.20;99.90
44509;DHT22;30214;52.246;14.408;2022-11-15T17:12:46;7.20;99.90
44509;DHT22;30214;52.246;14.408;2022-11-15T17:15:15;7.10;99.90